Time;durP1;ratioP1;P1;durP2;ratioP2;P2;SDS_P1;SDS_P2;PMS_P1;PMS_P2;Temp;Humidity;BMP_temperature;BMP_pressure;BME280_temperature;BME280_humidity;BME280_pressure;Samples;Min_cycle;Max_cycle;Signal;HPM_P1;HPM_P2
2022/08/17 00:00:59;;;;;;;18.43;11.60;;;24.00;31.70;;;;;;5011727;28;21045;-71
2022/08/17 00:03:46;;;;;;;14.20;11.63;;;23.80;31.90;;;;;;5011892;28;20530;-72
2022/08/17 00:06:18;;;;;;;18.13;11.30;;;23.80;32.10;;;;;;5012355;28;20427;-72
2022/08/17 00:08:48;;;;;;;15.67;11.20;;;24.00;32.30;;;;;;5012225;28;20794;-71
2022/08/17 00:11:30;;;;;;;12.47;10.30;;;23.90;32.10;;;;;;5002376;28;20469;-72
2022/08/17 00:14:03;;;;;;;17.70;11.57;;;23.90;32.10;;;;;;4994501;28;20479;-72
2022/08/17 00:16:32;;;;;;;15.70;11.77;;;23.60;32.60;;;;;;5004817;28;20429;-72
2022/08/17 00:19:00;;;;;;;17.60;11.63;;;23.80;32.40;;;;;;5011957;28;20428;-72
2022/08/17 00:21:27;;;;;;;15.97;12.23;;;23.70;32.40;;;;;;5012379;28;20428;-72
2022/08/17 00:23:53;;;;;;;21.40;11.70;;;23.70;32.90;;;;;;5012003;28;20607;-72
2022/08/17 00:26:20;;;;;;;17.13;12.20;;;23.60;33.40;;;;;;5010293;28;20518;-71
2022/08/17 00:28:46;;;;;;;20.40;12.40;;;23.50;33.30;;;;;;5017556;28;20474;-72
2022/08/17 00:31:12;;;;;;;15.57;11.10;;;23.30;32.60;;;;;;5002435;28;20947;-71
2022/08/17 00:33:39;;;;;;;15.90;10.97;;;22.70;34.20;;;;;;4992505;28;20508;-72
2022/08/17 00:36:06;;;;;;;24.30;12.00;;;22.70;35.10;;;;;;5001088;28;20184;-72
2022/08/17 00:38:33;;;;;;;19.90;11.57;;;22.80;34.90;;;;;;5011713;28;20428;-72
2022/08/17 00:41:08;;;;;;;13.67;11.47;;;22.90;34.70;;;;;;5011240;28;20472;-72
2022/08/17 00:43:39;;;;;;;16.27;11.93;;;22.80;34.50;;;;;;5004934;28;20433;-72
2022/08/17 00:46:23;;;;;;;15.77;11.57;;;22.90;34.60;;;;;;5015866;28;20460;-72
2022/08/17 00:48:50;;;;;;;13.50;10.33;;;22.60;35.70;;;;;;5011273;28;20989;-72
2022/08/17 00:51:34;;;;;;;16.20;11.20;;;22.60;35.50;;;;;;5011802;28;20796;-71
2022/08/17 00:54:17;;;;;;;14.77;11.30;;;22.30;36.60;;;;;;5016978;28;20537;-72
2022/08/17 00:57:15;;;;;;;14.40;11.70;;;22.40;36.70;;;;;;5005624;28;20435;-73
2022/08/17 00:59:48;;;;;;;16.70;11.93;;;22.70;35.90;;;;;;5001661;28;20974;-72
2022/08/17 01:02:15;;;;;;;16.50;12.50;;;23.00;34.90;;;;;;5011548;28;20392;-71
2022/08/17 01:04:43;;;;;;;16.00;12.70;;;23.00;34.80;;;;;;5012795;28;20510;-72
2022/08/17 01:07:11;;;;;;;19.97;13.17;;;23.10;34.70;;;;;;4997625;28;20420;-72
2022/08/17 01:09:38;;;;;;;18.67;12.93;;;23.00;34.80;;;;;;5011519;28;20420;-72
2022/08/17 01:12:07;;;;;;;22.87;13.10;;;23.00;34.80;;;;;;5011100;28;20443;-72
2022/08/17 01:14:33;;;;;;;19.47;12.23;;;22.90;34.90;;;;;;5010939;28;20460;-72
2022/08/17 01:16:59;;;;;;;19.10;13.97;;;23.00;35.40;;;;;;5011923;28;20422;-72
2022/08/17 01:19:30;;;;;;;17.80;13.33;;;22.90;35.10;;;;;;5009940;28;20467;-72
2022/08/17 01:22:11;;;;;;;18.30;12.33;;;22.40;35.60;;;;;;5013192;28;20230;-72
2022/08/17 01:24:40;;;;;;;16.47;12.83;;;22.20;36.90;;;;;;5004509;28;20455;-71
2022/08/17 01:27:07;;;;;;;14.10;11.70;;;22.30;36.70;;;;;;5011910;28;20408;-71
2022/08/17 01:29:35;;;;;;;18.60;11.67;;;22.30;36.50;;;;;;5010905;28;20942;-71
2022/08/17 01:32:04;;;;;;;16.20;11.80;;;22.50;36.20;;;;;;5010820;28;20425;-72
2022/08/17 01:34:31;;;;;;;17.17;10.83;;;22.40;35.50;;;;;;5010979;28;20480;-72
2022/08/17 01:36:57;;;;;;;14.40;12.20;;;22.50;35.80;;;;;;4994632;28;20421;-72
2022/08/17 01:39:25;;;;;;;14.30;11.70;;;22.30;36.30;;;;;;4996850;28;20486;-72
2022/08/17 01:41:58;;;;;;;14.13;11.27;;;22.40;36.10;;;;;;5010853;28;20930;-72
2022/08/17 01:44:25;;;;;;;14.43;11.03;;;22.30;35.90;;;;;;5012163;28;20570;-72
2022/08/17 01:46:51;;;;;;;23.17;11.87;;;21.90;37.00;;;;;;4995541;28;20440;-71
2022/08/17 01:49:17;;;;;;;15.23;11.10;;;22.00;36.90;;;;;;4995935;28;20498;-71
2022/08/17 01:51:43;;;;;;;16.50;11.37;;;22.10;36.80;;;;;;5013826;28;20558;-71
2022/08/17 01:54:17;;;;;;;15.67;11.07;;;22.20;36.70;;;;;;5014340;28;20207;-72
2022/08/17 01:56:47;;;;;;;21.33;10.90;;;22.40;36.00;;;;;;5022443;28;20192;-71
2022/08/17 01:59:13;;;;;;;29.73;11.87;;;22.40;35.50;;;;;;5007013;28;20418;-72
2022/08/17 02:01:39;;;;;;;14.77;11.40;;;22.60;35.50;;;;;;5020183;28;20430;-72
2022/08/17 02:04:06;;;;;;;20.90;12.50;;;22.60;35.70;;;;;;5016530;28;20816;-72
2022/08/17 02:06:35;;;;;;;24.33;11.97;;;22.60;35.50;;;;;;5015242;28;20180;-72
2022/08/17 02:09:01;;;;;;;16.73;11.73;;;22.60;35.80;;;;;;5015243;28;20431;-72
2022/08/17 02:11:27;;;;;;;20.57;13.67;;;22.60;34.90;;;;;;5007216;28;20515;-71
2022/08/17 02:13:53;;;;;;;20.43;13.47;;;22.60;35.50;;;;;;5013127;28;20652;-72
2022/08/17 02:16:18;;;;;;;17.10;12.70;;;22.70;35.80;;;;;;5005175;28;20408;-72
2022/08/17 02:18:45;;;;;;;17.77;12.20;;;22.80;35.30;;;;;;5007138;28;20439;-72
2022/08/17 02:21:12;;;;;;;18.80;13.33;;;22.70;35.80;;;;;;5016701;28;20285;-72
2022/08/17 02:23:40;;;;;;;14.87;11.77;;;22.70;35.30;;;;;;5013375;28;20461;-71
2022/08/17 02:26:06;;;;;;;21.83;12.00;;;22.30;35.70;;;;;;5013457;28;20424;-72
2022/08/17 02:28:32;;;;;;;22.37;12.03;;;22.00;37.30;;;;;;5014771;28;20418;-72
2022/08/17 02:31:06;;;;;;;17.30;13.00;;;22.30;37.10;;;;;;5014194;28;20423;-71
2022/08/17 02:33:35;;;;;;;16.10;12.27;;;22.50;36.20;;;;;;5013417;28;20207;-72
2022/08/17 02:36:03;;;;;;;21.23;12.87;;;22.50;35.90;;;;;;5016645;28;20446;-69
2022/08/17 02:38:30;;;;;;;14.93;11.73;;;22.40;36.40;;;;;;5022103;28;20509;-72
2022/08/17 02:40:57;;;;;;;14.10;11.73;;;22.40;36.70;;;;;;5013977;28;20486;-71
2022/08/17 02:43:27;;;;;;;13.87;11.80;;;22.40;36.30;;;;;;5021610;28;20505;-72
2022/08/17 02:45:54;;;;;;;16.30;12.97;;;22.40;37.10;;;;;;5013092;28;20429;-72
2022/08/17 02:48:20;;;;;;;17.07;11.97;;;22.40;36.40;;;;;;5012088;28;20520;-72
2022/08/17 02:50:49;;;;;;;15.27;11.87;;;22.40;36.10;;;;;;5016436;28;20531;-71
2022/08/17 02:53:20;;;;;;;15.40;12.37;;;22.30;36.40;;;;;;5013471;28;20430;-73
2022/08/17 02:55:46;;;;;;;17.73;12.07;;;22.30;36.90;;;;;;5013105;28;20491;-72
2022/08/17 02:58:12;;;;;;;12.70;10.50;;;22.60;36.10;;;;;;5013872;28;20417;-71
2022/08/17 03:00:50;;;;;;;15.17;11.70;;;22.60;35.50;;;;;;5014225;28;20455;-72
2022/08/17 03:03:19;;;;;;;16.67;11.90;;;22.80;35.40;;;;;;5019424;28;20446;-72
2022/08/17 03:05:50;;;;;;;16.50;11.30;;;22.60;35.70;;;;;;5018685;28;20848;-71
2022/08/17 03:08:16;;;;;;;16.40;12.40;;;22.50;36.80;;;;;;5015237;28;20437;-72
2022/08/17 03:10:43;;;;;;;13.23;11.27;;;22.40;36.70;;;;;;5014017;28;20420;-72
2022/08/17 03:13:13;;;;;;;16.07;12.03;;;22.50;36.40;;;;;;5012756;28;20499;-71
2022/08/17 03:15:40;;;;;;;17.33;12.00;;;22.50;36.30;;;;;;5010428;28;20429;-72
2022/08/17 03:18:09;;;;;;;17.23;11.20;;;22.40;36.90;;;;;;5012771;28;20432;-72
2022/08/17 03:20:35;;;;;;;14.90;12.40;;;22.50;36.60;;;;;;5012850;28;20485;-71
2022/08/17 03:23:02;;;;;;;16.73;11.73;;;22.50;36.90;;;;;;5004844;28;20816;-71
2022/08/17 03:25:32;;;;;;;16.90;11.37;;;22.40;36.30;;;;;;4993588;28;20434;-72
2022/08/17 03:27:58;;;;;;;17.07;12.33;;;22.50;36.70;;;;;;5018424;28;20476;-71
2022/08/17 03:30:26;;;;;;;13.53;10.77;;;22.10;36.20;;;;;;5013436;28;20415;-72
2022/08/17 03:32:58;;;;;;;14.97;11.53;;;21.60;38.30;;;;;;5013040;28;20414;-72
2022/08/17 03:35:28;;;;;;;16.90;11.47;;;21.40;39.10;;;;;;5013093;28;20416;-72
2022/08/17 03:37:54;;;;;;;16.50;10.13;;;20.90;40.70;;;;;;5019749;28;20428;-71
2022/08/17 03:40:21;;;;;;;14.90;10.70;;;20.70;41.80;;;;;;5012930;28;20802;-71
2022/08/17 03:42:47;;;;;;;13.60;10.40;;;21.00;41.00;;;;;;5012925;28;20466;-71
2022/08/17 03:45:16;;;;;;;15.60;11.30;;;21.30;39.40;;;;;;5011940;28;20944;-72
2022/08/17 03:59:06;;;;;;;21.70;12.20;;;22.00;37.80;;;;;;5010233;28;20489;-72
2022/08/17 04:01:32;;;;;;;16.03;11.33;;;22.00;37.40;;;;;;5008648;28;20461;-70
2022/08/17 04:04:02;;;;;;;20.37;11.90;;;22.00;37.40;;;;;;5012573;28;20451;-69
2022/08/17 04:06:28;;;;;;;16.20;12.40;;;21.90;38.10;;;;;;5008141;28;20426;-72
2022/08/17 04:08:54;;;;;;;19.30;12.73;;;21.80;38.70;;;;;;5005752;28;20485;-71
2022/08/17 04:11:20;;;;;;;16.20;11.97;;;21.80;38.40;;;;;;4996160;28;20468;-72
2022/08/17 04:13:46;;;;;;;15.90;12.20;;;22.00;37.70;;;;;;5019933;28;20453;-72
2022/08/17 04:16:12;;;;;;;13.13;11.20;;;21.90;37.50;;;;;;5014491;28;20787;-72
2022/08/17 04:18:38;;;;;;;17.20;13.00;;;22.00;37.60;;;;;;5016484;28;20917;-72
2022/08/17 04:21:13;;;;;;;15.03;12.33;;;21.90;38.60;;;;;;4996460;28;20475;-72
2022/08/17 04:23:39;;;;;;;17.23;12.50;;;21.80;38.40;;;;;;5015765;28;20467;-71
2022/08/17 04:26:05;;;;;;;19.47;11.53;;;22.00;38.00;;;;;;4995793;28;20422;-71
2022/08/17 04:28:31;;;;;;;18.67;12.07;;;22.00;37.70;;;;;;5010333;28;20428;-71
2022/08/17 04:30:58;;;;;;;17.13;11.73;;;22.40;36.70;;;;;;5011846;28;20447;-71
2022/08/17 04:33:29;;;;;;;13.83;11.80;;;22.40;36.80;;;;;;5012048;28;20452;-72
2022/08/17 04:36:04;;;;;;;13.63;11.57;;;22.20;37.10;;;;;;4997442;28;20464;-72
2022/08/17 04:38:33;;;;;;;15.50;12.30;;;22.20;37.20;;;;;;5004933;28;20428;-72
2022/08/17 04:43:45;;;;;;;18.40;11.53;;;22.40;36.80;;;;;;5053736;22;20561;-72
2022/08/17 04:46:17;;;;;;;15.80;10.97;;;22.60;35.60;;;;;;5045897;28;20554;-71
2022/08/17 04:48:45;;;;;;;14.50;11.00;;;22.80;35.40;;;;;;5040046;28;20459;-71
2022/08/17 04:51:14;;;;;;;16.57;10.90;;;22.70;36.00;;;;;;5051449;28;20419;-71
2022/08/17 04:53:42;;;;;;;14.13;10.70;;;22.80;36.00;;;;;;5049595;28;20446;-71
2022/08/17 04:56:09;;;;;;;27.10;11.10;;;22.80;35.60;;;;;;5043345;28;20423;-72
2022/08/17 04:58:35;;;;;;;14.93;11.80;;;22.70;35.90;;;;;;5049646;28;20408;-72
2022/08/17 05:01:01;;;;;;;29.53;11.93;;;22.70;35.50;;;;;;5029051;28;20448;-70
2022/08/17 05:03:27;;;;;;;26.17;12.27;;;22.70;35.80;;;;;;5030491;28;20180;-71
2022/08/17 05:05:52;;;;;;;21.10;12.57;;;22.90;35.80;;;;;;5035558;28;20415;-71
2022/08/17 05:08:19;;;;;;;21.07;12.27;;;22.90;35.40;;;;;;5031456;28;20178;-71
2022/08/17 05:10:46;;;;;;;19.47;11.47;;;23.00;35.50;;;;;;5045532;28;20268;-71
2022/08/17 05:13:19;;;;;;;19.37;12.43;;;23.10;35.80;;;;;;5038639;28;20439;-71
2022/08/17 05:15:46;;;;;;;19.47;14.20;;;23.10;35.20;;;;;;5036363;28;20444;-71
2022/08/17 05:18:12;;;;;;;21.53;13.60;;;22.70;35.40;;;;;;5049599;28;20413;-72
2022/08/17 05:20:39;;;;;;;24.20;14.10;;;22.50;36.70;;;;;;5051434;28;20454;-72
2022/08/17 05:23:07;;;;;;;19.80;14.07;;;22.70;36.00;;;;;;5035414;28;21017;-71
2022/08/17 05:25:36;;;;;;;21.27;13.80;;;22.90;36.50;;;;;;5037001;28;20839;-72
2022/08/17 05:28:04;;;;;;;24.70;15.33;;;22.90;35.70;;;;;;5048124;28;21044;-71
2022/08/17 05:30:30;;;;;;;19.63;13.90;;;22.90;36.00;;;;;;5050488;28;20467;-71
2022/08/17 05:32:58;;;;;;;27.80;16.20;;;23.00;35.90;;;;;;5029555;28;20422;-71
2022/08/17 05:35:25;;;;;;;27.37;15.80;;;23.00;35.60;;;;;;5027629;28;20215;-71
2022/08/17 05:37:52;;;;;;;21.57;15.40;;;23.00;36.00;;;;;;5038795;28;20467;-70
2022/08/17 05:40:19;;;;;;;20.43;14.90;;;22.90;35.40;;;;;;5041716;28;20802;-71
2022/08/17 05:42:45;;;;;;;30.40;15.10;;;22.70;36.60;;;;;;5032433;28;20437;-70
2022/08/17 05:45:11;;;;;;;25.33;14.57;;;23.00;36.00;;;;;;5032448;28;20446;-71
2022/08/17 05:47:38;;;;;;;17.67;13.00;;;22.90;35.70;;;;;;5031463;28;20414;-69
2022/08/17 05:50:07;;;;;;;21.67;13.47;;;23.20;35.80;;;;;;5031230;28;20558;-71
2022/08/17 05:52:42;;;;;;;22.73;12.40;;;23.40;36.10;;;;;;5023110;28;20988;-71
2022/08/17 05:55:42;;;;;;;19.53;12.43;;;23.40;34.40;;;;;;5033193;28;20439;-70
2022/08/17 05:58:26;;;;;;;18.83;12.27;;;23.60;35.80;;;;;;4988002;28;20445;-70
2022/08/17 06:01:10;;;;;;;15.43;12.17;;;23.40;34.00;;;;;;4989126;28;20459;-70
2022/08/17 06:03:47;;;;;;;17.07;12.27;;;23.80;35.40;;;;;;4979519;28;20850;-70
2022/08/17 06:06:45;;;;;;;19.40;12.53;;;23.80;33.60;;;;;;4978049;28;20574;-70
2022/08/17 06:09:22;;;;;;;22.60;11.67;;;23.50;34.50;;;;;;4967424;28;20430;-71
2022/08/17 06:12:06;;;;;;;21.63;11.17;;;24.00;35.00;;;;;;4974640;28;20434;-70
2022/08/17 06:14:50;;;;;;;23.43;11.33;;;24.40;33.10;;;;;;4989165;28;20837;-69
2022/08/17 06:17:20;;;;;;;18.10;11.17;;;24.30;33.20;;;;;;4975232;28;20444;-68
2022/08/17 06:19:54;;;;;;;16.77;11.30;;;24.30;35.00;;;;;;4973534;28;20952;-70
2022/08/17 06:22:23;;;;;;;23.37;12.10;;;24.50;34.20;;;;;;4964187;28;20430;-71
2022/08/17 06:25:03;;;;;;;18.53;11.63;;;24.40;33.30;;;;;;4972934;28;20453;-70
2022/08/17 06:27:35;;;;;;;18.47;10.83;;;24.30;33.80;;;;;;4990762;28;20434;-70
2022/08/17 06:30:36;;;;;;;17.87;10.67;;;24.40;33.10;;;;;;4981205;28;20455;-68
2022/08/17 06:33:07;;;;;;;16.10;11.60;;;24.90;33.00;;;;;;4953422;29;20452;-69
2022/08/17 06:35:51;;;;;;;14.03;10.97;;;25.10;34.50;;;;;;4954028;29;20439;-72
2022/08/17 06:38:31;;;;;;;23.13;10.70;;;25.20;33.00;;;;;;4945185;29;20536;-70
2022/08/17 06:41:33;;;;;;;19.47;10.90;;;25.30;32.90;;;;;;4940478;29;20466;-70
2022/08/17 06:44:05;;;;;;;18.03;11.03;;;25.00;33.70;;;;;;4949206;29;20998;-71
2022/08/17 06:46:49;;;;;;;14.57;11.17;;;24.80;32.50;;;;;;4945441;29;20457;-71
2022/08/17 06:49:31;;;;;;;16.00;10.60;;;24.70;32.80;;;;;;4945491;29;20537;-71
2022/08/17 06:52:15;;;;;;;19.70;12.67;;;24.90;32.50;;;;;;4941419;29;20425;-71
2022/08/17 06:55:12;;;;;;;21.20;10.80;;;25.00;32.50;;;;;;4947622;29;21044;-71
2022/08/17 06:57:44;;;;;;;19.00;10.93;;;25.20;31.80;;;;;;4937923;29;20435;-71
2022/08/17 07:00:21;;;;;;;16.93;10.97;;;25.40;31.80;;;;;;4947345;29;20470;-71
2022/08/17 07:02:54;;;;;;;16.70;11.50;;;25.60;30.70;;;;;;4936752;29;20503;-71
2022/08/17 07:05:25;;;;;;;17.80;11.97;;;25.70;31.30;;;;;;4939129;29;20458;-71
2022/08/17 07:08:04;;;;;;;14.93;11.50;;;25.80;30.00;;;;;;4950836;28;20454;-71
2022/08/17 07:10:36;;;;;;;16.70;11.30;;;25.70;29.90;;;;;;5038687;28;20418;-71
2022/08/17 07:13:18;;;;;;;15.60;10.77;;;25.50;30.10;;;;;;5053200;28;20410;-71
2022/08/17 07:15:46;;;;;;;24.40;10.70;;;25.70;30.00;;;;;;5041264;28;20433;-72
2022/08/17 07:18:11;;;;;;;22.70;11.50;;;25.80;29.50;;;;;;5035475;28;20456;-71
2022/08/17 07:20:42;;;;;;;17.00;11.00;;;25.70;29.60;;;;;;5034305;28;21044;-71
2022/08/17 07:23:29;;;;;;;20.53;10.03;;;25.50;29.80;;;;;;5033721;28;20640;-71
2022/08/17 07:26:04;;;;;;;17.00;11.53;;;25.80;29.90;;;;;;5015324;28;20423;-71
2022/08/17 07:28:33;;;;;;;25.43;12.03;;;26.00;29.40;;;;;;5034307;28;20435;-71
2022/08/17 07:30:59;;;;;;;20.33;12.17;;;26.10;28.60;;;;;;5049180;28;20426;-71
2022/08/17 07:33:30;;;;;;;23.00;11.93;;;26.20;28.50;;;;;;5052754;28;20499;-71
2022/08/17 07:35:59;;;;;;;28.70;12.10;;;26.20;29.00;;;;;;5023283;28;20200;-71
2022/08/17 07:38:30;;;;;;;27.77;12.70;;;25.90;29.60;;;;;;5034597;28;20469;-71
2022/08/17 07:41:01;;;;;;;23.07;11.83;;;25.70;29.90;;;;;;5032592;28;20525;-71
2022/08/17 07:43:34;;;;;;;20.03;10.60;;;25.80;30.20;;;;;;5012748;28;20403;-71
2022/08/17 07:49:07;;;;;;;12.97;10.67;;;26.00;30.00;;;;;;5039288;28;20847;-71
2022/08/17 07:51:56;;;;;;;16.70;10.50;;;26.10;28.90;;;;;;5017234;28;20431;-71
2022/08/17 07:54:28;;;;;;;14.00;9.73;;;26.20;29.60;;;;;;5012845;28;20432;-71
2022/08/17 07:56:55;;;;;;;13.63;9.73;;;26.40;28.80;;;;;;5009223;28;20436;-72
2022/08/17 07:59:22;;;;;;;16.70;9.87;;;26.60;27.90;;;;;;5038635;28;20438;-70
2022/08/17 08:02:04;;;;;;;14.20;9.77;;;26.20;28.90;;;;;;5031906;28;20441;-70
2022/08/17 08:04:33;;;;;;;16.10;8.87;;;26.10;28.80;;;;;;5031534;28;20449;-70
2022/08/17 08:07:01;;;;;;;10.30;8.50;;;26.00;29.20;;;;;;5043967;28;20417;-69
2022/08/17 08:09:39;;;;;;;15.87;9.20;;;26.00;29.30;;;;;;5052741;28;20892;-69
2022/08/17 08:12:25;;;;;;;15.00;9.07;;;26.20;29.00;;;;;;5039616;28;20821;-70
2022/08/17 08:15:01;;;;;;;11.83;8.13;;;27.00;26.60;;;;;;5021459;28;20430;-70
2022/08/17 08:17:35;;;;;;;12.33;8.50;;;27.10;26.90;;;;;;5012322;28;20485;-71
2022/08/17 08:20:07;;;;;;;21.83;8.40;;;27.20;27.60;;;;;;5016528;28;20466;-70
2022/08/17 08:22:45;;;;;;;13.23;8.53;;;26.80;27.10;;;;;;5024741;28;20948;-71
2022/08/17 08:25:25;;;;;;;10.50;7.93;;;26.90;27.30;;;;;;5036018;28;20508;-72
2022/08/17 08:28:13;;;;;;;13.67;9.20;;;27.00;27.40;;;;;;5032122;28;20952;-71
2022/08/17 08:30:45;;;;;;;19.00;9.20;;;27.10;27.60;;;;;;5010535;28;20474;-70
2022/08/17 08:33:24;;;;;;;14.20;8.30;;;27.50;27.10;;;;;;5028657;28;20445;-71
2022/08/17 08:35:54;;;;;;;12.20;8.20;;;26.90;26.90;;;;;;5018359;28;20450;-70
2022/08/17 08:38:46;;;;;;;15.33;8.83;;;26.80;27.00;;;;;;5037811;28;20484;-71
2022/08/17 08:41:18;;;;;;;15.87;8.33;;;26.70;26.90;;;;;;5021611;28;20464;-70
2022/08/17 08:43:57;;;;;;;12.30;8.00;;;26.70;26.60;;;;;;5030329;28;20467;-67
2022/08/17 08:46:38;;;;;;;11.97;8.03;;;26.50;27.40;;;;;;5042976;28;20430;-70
2022/08/17 08:49:22;;;;;;;10.53;8.20;;;26.40;27.90;;;;;;5035587;28;20447;-70
2022/08/17 08:51:48;;;;;;;12.03;8.60;;;26.20;27.80;;;;;;5034809;28;20447;-70
2022/08/17 08:54:16;;;;;;;12.43;8.10;;;26.20;28.10;;;;;;5034485;28;20516;-71
2022/08/17 08:57:09;;;;;;;13.67;9.13;;;26.10;28.40;;;;;;5048713;28;20183;-70
2022/08/17 08:59:59;;;;;;;25.53;8.43;;;25.90;29.20;;;;;;5040654;28;20988;-71
2022/08/17 09:02:49;;;;;;;30.93;8.90;;;26.10;28.90;;;;;;5034535;28;20921;-71
2022/08/17 09:05:42;;;;;;;12.50;8.47;;;25.80;29.70;;;;;;5034522;28;20894;-71
2022/08/17 09:08:11;;;;;;;14.47;9.00;;;25.80;29.60;;;;;;5034705;28;20411;-71
2022/08/17 09:11:10;;;;;;;19.10;9.20;;;26.00;29.20;;;;;;5033135;28;20825;-71
2022/08/17 09:13:45;;;;;;;18.87;8.40;;;26.30;28.70;;;;;;5013640;28;20444;-71
2022/08/17 09:16:16;;;;;;;16.17;8.40;;;26.10;28.40;;;;;;5014749;28;20817;-69
2022/08/17 09:18:53;;;;;;;9.87;7.77;;;26.20;27.10;;;;;;5013519;28;20431;-70
2022/08/17 09:21:39;;;;;;;13.83;7.90;;;26.00;27.10;;;;;;5026918;28;21036;-71
2022/08/17 09:24:27;;;;;;;23.73;8.53;;;26.10;27.10;;;;;;5032693;28;20431;-71
2022/08/17 09:27:13;;;;;;;11.27;7.90;;;26.20;27.30;;;;;;5017864;28;21167;-71
2022/08/17 09:29:46;;;;;;;15.33;8.10;;;26.10;27.30;;;;;;5012216;28;20412;-71
2022/08/17 09:32:27;;;;;;;16.23;8.43;;;25.70;28.70;;;;;;5027992;28;20419;-71
2022/08/17 09:35:00;;;;;;;16.77;7.97;;;25.50;29.40;;;;;;5023181;28;21007;-71
2022/08/17 09:37:37;;;;;;;25.83;7.90;;;25.90;28.80;;;;;;5012973;28;20411;-71
2022/08/17 09:40:30;;;;;;;10.60;6.90;;;25.60;28.60;;;;;;5013658;28;20927;-70
2022/08/17 09:43:02;;;;;;;18.23;7.20;;;25.80;27.70;;;;;;5013896;28;20428;-71
2022/08/17 09:45:27;;;;;;;12.80;7.60;;;25.20;28.60;;;;;;5012681;28;20455;-71
2022/08/17 09:47:57;;;;;;;19.53;7.17;;;25.60;28.10;;;;;;5013501;28;20420;-71
2022/08/17 09:51:02;;;;;;;19.33;6.93;;;26.30;27.10;;;;;;5012256;28;20637;-71
2022/08/17 09:53:29;;;;;;;15.47;7.73;;;26.20;26.90;;;;;;5026984;28;20430;-70
2022/08/17 09:56:16;;;;;;;9.00;7.43;;;26.80;26.60;;;;;;5031908;28;20431;-71
2022/08/17 09:58:46;;;;;;;12.60;7.70;;;27.20;25.70;;;;;;5033206;28;20809;-71
2022/08/17 10:01:30;;;;;;;11.77;7.50;;;27.00;25.90;;;;;;5016027;28;20486;-71
2022/08/17 10:04:20;;;;;;;11.00;7.67;;;26.20;26.30;;;;;;5028794;28;20447;-71
2022/08/17 10:07:00;;;;;;;11.67;7.20;;;26.80;25.90;;;;;;5034584;28;20450;-70
2022/08/17 10:09:54;;;;;;;13.30;7.93;;;27.50;26.10;;;;;;5034417;28;20761;-71
2022/08/17 10:12:42;;;;;;;8.77;7.50;;;27.30;25.40;;;;;;5032272;28;20791;-71
2022/08/17 10:15:26;;;;;;;11.50;7.40;;;27.80;24.30;;;;;;5015127;28;21021;-72
2022/08/17 10:18:20;;;;;;;9.90;7.40;;;28.10;23.80;;;;;;5018121;28;20404;-72
2022/08/17 10:26:11;;;;;;;11.63;8.03;;;28.10;24.10;;;;;;5029399;28;20596;-71
2022/08/17 10:26:32;;;;;;;14.10;8.13;;;28.40;23.40;;;;;;5015992;28;20506;-72
2022/08/17 10:29:20;;;;;;;11.47;8.97;;;28.70;24.80;;;;;;5021047;28;20430;-72
2022/08/17 10:31:50;;;;;;;15.33;8.50;;;29.10;22.70;;;;;;5038062;28;20441;-71
2022/08/17 10:34:49;;;;;;;23.63;8.80;;;29.20;23.00;;;;;;5037557;28;20457;-69
2022/08/17 10:37:32;;;;;;;7.83;7.17;;;29.10;23.50;;;;;;5046353;28;20428;-71
2022/08/17 10:40:09;;;;;;;12.20;7.00;;;28.80;23.60;;;;;;5042653;28;20459;-72
2022/08/17 10:42:45;;;;;;;10.93;7.00;;;29.00;24.10;;;;;;5037720;28;20466;-71
2022/08/17 10:45:24;;;;;;;8.47;6.70;;;28.80;21.90;;;;;;5033427;28;20438;-72
2022/08/17 10:48:02;;;;;;;8.53;7.03;;;29.20;23.20;;;;;;5028558;28;20415;-72
2022/08/17 10:50:59;;;;;;;11.93;8.47;;;29.60;21.80;;;;;;5022085;28;21099;-72
2022/08/17 10:53:30;;;;;;;10.80;6.73;;;30.10;21.70;;;;;;5288962;22;20525;-77
2022/08/17 10:56:11;;;;;;;8.20;6.83;;;30.50;20.60;;;;;;5045739;28;20415;-74
2022/08/17 10:58:56;;;;;;;9.70;6.70;;;30.10;20.60;;;;;;5217994;22;20511;-68
2022/08/17 11:01:36;;;;;;;12.20;8.00;;;30.00;20.70;;;;;;5051368;28;20555;-70
2022/08/17 11:04:17;;;;;;;8.60;7.37;;;30.30;19.80;;;;;;5050806;28;20429;-70
2022/08/17 11:07:01;;;;;;;9.33;7.10;;;30.40;20.80;;;;;;5054367;28;20452;-71
2022/08/17 11:09:46;;;;;;;12.60;6.97;;;30.20;20.60;;;;;;5051429;28;21025;-71
2022/08/17 11:14:47;;;;;;;12.00;7.30;;;29.70;19.90;;;;;;5033149;22;20503;-72
2022/08/17 11:17:16;;;;;;;12.03;6.77;;;28.90;22.20;;;;;;5013951;28;20498;-74
2022/08/17 11:19:57;;;;;;;8.63;7.07;;;28.90;22.90;;;;;;5013089;28;20464;-72
2022/08/17 11:22:40;;;;;;;9.30;6.47;;;29.10;21.40;;;;;;5013349;28;20952;-73
2022/08/17 11:25:18;;;;;;;13.37;7.63;;;29.50;22.70;;;;;;5010784;28;20841;-72
2022/08/17 11:27:52;;;;;;;9.43;7.00;;;29.30;21.50;;;;;;5011880;28;20443;-72
2022/08/17 11:30:48;;;;;;;11.00;7.20;;;29.40;21.60;;;;;;5012359;28;20423;-72
2022/08/17 11:33:40;;;;;;;10.20;7.40;;;28.40;22.30;;;;;;5010115;28;20460;-72
2022/08/17 11:36:31;;;;;;;11.00;7.80;;;28.60;23.00;;;;;;5010627;28;20411;-71
2022/08/17 11:39:24;;;;;;;10.07;7.60;;;28.50;22.40;;;;;;5009876;28;20474;-72
2022/08/17 11:42:25;;;;;;;8.33;7.30;;;28.10;22.80;;;;;;5012853;28;20420;-75
2022/08/17 11:44:53;;;;;;;8.40;7.37;;;28.00;23.80;;;;;;5030680;28;20458;-75
2022/08/17 11:52:55;;;;;;;11.13;7.40;;;26.60;26.20;;;;;;5030577;28;20446;-73
2022/08/17 11:55:34;;;;;;;9.17;7.80;;;26.30;27.50;;;;;;5030650;28;20843;-73
2022/08/17 11:58:16;;;;;;;11.57;7.60;;;26.60;27.30;;;;;;5030445;28;20176;-73
2022/08/17 12:00:45;;;;;;;14.97;7.97;;;26.70;27.10;;;;;;5030254;28;20458;-72
2022/08/17 12:03:25;;;;;;;8.33;7.10;;;27.20;26.40;;;;;;5028725;28;20489;-73
2022/08/17 12:06:19;;;;;;;9.77;6.60;;;27.80;25.80;;;;;;5024537;28;20445;-73
2022/08/17 12:08:57;;;;;;;9.50;6.67;;;28.20;24.50;;;;;;5019898;28;20423;-74
2022/08/17 12:11:41;;;;;;;11.10;6.83;;;29.40;22.90;;;;;;5026256;28;20438;-73
2022/08/17 12:14:08;;;;;;;8.03;7.10;;;30.30;22.40;;;;;;5027075;28;20481;-73
2022/08/17 12:16:34;;;;;;;11.70;6.93;;;30.30;22.80;;;;;;5015674;28;20416;-73
2022/08/17 12:19:02;;;;;;;7.93;5.80;;;30.50;22.20;;;;;;5011509;28;20422;-74
2022/08/17 12:21:36;;;;;;;11.93;5.90;;;31.90;20.10;;;;;;5012404;28;20260;-74
2022/08/17 12:24:22;;;;;;;12.33;5.60;;;33.40;18.80;;;;;;5012516;28;20428;-74
2022/08/17 12:27:09;;;;;;;7.70;5.70;;;34.60;15.40;;;;;;5012509;28;21024;-74
2022/08/17 12:29:37;;;;;;;11.83;5.27;;;35.50;15.30;;;;;;5006328;28;20439;-74
2022/08/17 12:32:05;;;;;;;8.00;5.17;;;35.40;13.70;;;;;;5010159;28;20412;-74
2022/08/17 12:34:38;;;;;;;7.00;4.80;;;34.80;13.60;;;;;;5010925;28;20428;-74
2022/08/17 12:37:20;;;;;;;6.23;5.10;;;33.80;14.90;;;;;;5012045;28;20447;-74
2022/08/17 12:40:00;;;;;;;6.00;4.90;;;34.80;14.00;;;;;;5011104;28;20460;-74
2022/08/17 12:42:33;;;;;;;7.50;5.23;;;36.00;12.80;;;;;;5011700;28;20406;-74
2022/08/17 12:44:59;;;;;;;5.83;4.73;;;36.10;11.60;;;;;;5010976;28;20786;-74
2022/08/17 12:47:26;;;;;;;4.70;4.40;;;36.10;12.20;;;;;;5012292;28;20421;-74
2022/08/17 12:49:53;;;;;;;5.30;4.37;;;35.60;12.70;;;;;;5011601;28;20185;-74
2022/08/17 12:52:19;;;;;;;6.37;5.07;;;35.00;13.20;;;;;;5007356;28;20963;-73
2022/08/17 12:55:01;;;;;;;6.80;5.60;;;34.80;13.20;;;;;;5011575;28;20408;-73
2022/08/17 12:57:37;;;;;;;7.83;5.43;;;34.60;12.90;;;;;;5011147;28;20574;-75
2022/08/17 13:00:41;;;;;;;8.07;5.27;;;34.70;14.00;;;;;;5011230;28;20443;-73
2022/08/17 13:03:20;;;;;;;6.70;5.40;;;33.90;13.60;;;;;;5008512;28;20479;-75
2022/08/17 13:05:51;;;;;;;10.20;5.77;;;34.30;13.80;;;;;;5009834;28;20422;-74
2022/08/17 13:08:22;;;;;;;7.90;5.70;;;34.20;13.70;;;;;;5001792;28;20416;-74
2022/08/17 13:11:15;;;;;;;7.00;5.20;;;34.20;13.70;;;;;;4999757;28;20423;-74
2022/08/17 13:13:43;;;;;;;9.33;5.77;;;34.20;13.00;;;;;;4998005;28;20567;-74
2022/08/17 13:16:13;;;;;;;13.33;5.77;;;33.90;14.10;;;;;;5000957;28;20436;-74
2022/08/17 13:18:52;;;;;;;7.43;6.07;;;33.80;13.70;;;;;;4999432;28;20452;-75
2022/08/17 13:21:18;;;;;;;11.03;5.60;;;33.60;12.70;;;;;;5011347;28;20947;-74
2022/08/17 13:23:59;;;;;;;8.53;5.50;;;33.70;14.00;;;;;;5011088;28;20424;-74
2022/08/17 13:26:35;;;;;;;8.87;6.13;;;33.70;11.60;;;;;;5011955;28;20157;-73
2022/08/17 13:29:05;;;;;;;6.70;5.90;;;33.10;13.70;;;;;;5011888;28;20422;-73
2022/08/17 13:31:35;;;;;;;12.47;5.80;;;33.00;14.00;;;;;;5008338;28;20498;-73
2022/08/17 13:34:30;;;;;;;6.53;5.73;;;33.00;13.30;;;;;;5009434;28;20432;-73
2022/08/17 13:37:31;;;;;;;7.47;5.70;;;32.50;14.80;;;;;;4994116;28;20409;-73